Главная страница
METAR-TAF:

METAR-TAF

Аэропорты :

Ставрополь, Россия

широта: 45-20N, долгота: 042-00E, высота над уровнем моря: м

Текущие метеонаблюдения

Эта сводка был подготовлена 33 минут назад, в 06:00 UTC
Ветер 17 Узел от восточно-юго-восточный
Температура 24°C
Влажность 47%
Давление 1015 hPa
Видимость 10 км и более
Нет облачности ниже 1500 м, и нет кучево-дождевой облачности

METAR: URMT 210600Z 12009MPS CAVOK 24/12 Q1015 R07/010070 NOSIG RMK QFE721

Время: 09:33 (06:33 UTC)

Прогноз

Эта сводка был подготовлена 1 час и 33 минут назад, в 05:00 UTC
Прогноз действительный с 21-го 06 UTC до 21-го 15 UTC
Ветер 16 Узел от восточный с порывами до 25 Узел
Видимость 10 км и более
Отдельные облака на высоте 2000 фута
временами
С 21-го 06 UTC до 21-го 12 UTC
Ветер 21 Узел от восточно-юго-восточный с порывами до 31 Узел

TAF: URMT 210500Z 2106/2115 10008G13MPS 9999 SCT020 TEMPO 2106/2112 11011G16MPS

Метеонаблюдения и прогнозы для более 4000 аэропортов (сводки METAR и TAF).

Имеющиеся станции представлены на карте желтыми и красными точками.

Чтобы увидеть название станции, наведите на нее мышь.

Затем щелкните, чтобы увидеть метеонаблюдения и метеопрогнозы.

Управление картой: чтобы увеличить масштаб, щелкните зеленые кнопки с черным крестиком; чтобы уменьшить масштаб, щелкните зеленую кнопку с тире; для просмотра соседних карт щелкайте зеленые стрелки.


METAR-TAF: